Time;durP1;ratioP1;P1;durP2;ratioP2;P2;SDS_P1;SDS_P2;PMS_P1;PMS_P2;Temp;Humidity;BMP_temperature;BMP_pressure;BME280_temperature;BME280_humidity;BME280_pressure;Samples;Min_cycle;Max_cycle;Signal;HPM_P1;HPM_P2
2022/12/09 00:00:33;;;;;;;10.10;8.98;;;;;;;1.72;100.00;97621.50;4225279;27;20216;-49
2022/12/09 00:02:35;;;;;;;13.18;10.52;;;;;;;1.77;100.00;97617.16;4206522;28;20290;-49
2022/12/09 00:04:37;;;;;;;12.80;11.18;;;;;;;1.82;100.00;97614.59;4220500;27;20212;-49
2022/12/09 00:06:39;;;;;;;12.18;10.85;;;;;;;1.89;100.00;97618.09;4223842;27;20228;-49
2022/12/09 00:08:41;;;;;;;11.73;10.55;;;;;;;1.78;100.00;97621.50;4239635;27;20243;-49
2022/12/09 00:10:44;;;;;;;16.15;10.95;;;;;;;1.72;100.00;97616.97;4222247;27;20709;-49
2022/12/09 00:12:46;;;;;;;14.55;13.02;;;;;;;1.74;100.00;97612.16;4221245;27;20201;-49
2022/12/09 00:14:48;;;;;;;12.00;10.00;;;;;;;1.92;100.00;97606.03;4219941;27;20338;-50
2022/12/09 00:16:49;;;;;;;13.80;10.90;;;;;;;1.87;100.00;97609.41;4219066;27;20221;-49
2022/12/09 00:18:52;;;;;;;12.88;11.65;;;;;;;1.76;100.00;97604.72;4229156;27;20215;-50
2022/12/09 00:20:54;;;;;;;11.93;10.70;;;;;;;1.75;100.00;97602.22;4237057;27;20225;-50
2022/12/09 00:22:56;;;;;;;15.18;10.18;;;;;;;1.68;100.00;97604.94;4220656;27;20294;-49
2022/12/09 00:24:58;;;;;;;14.38;11.20;;;;;;;1.71;100.00;97609.94;4205938;28;20238;-49
2022/12/09 00:26:59;;;;;;;12.80;11.48;;;;;;;1.80;100.00;97605.91;4241811;27;20320;-49
2022/12/09 00:29:02;;;;;;;9.52;8.55;;;;;;;1.80;100.00;97614.00;4222584;27;20661;-49
2022/12/09 00:31:05;;;;;;;11.90;10.68;;;;;;;1.70;100.00;97608.28;4238878;27;20288;-49
2022/12/09 00:33:07;;;;;;;12.55;9.43;;;;;;;1.69;100.00;97606.59;4239225;27;20208;-49
2022/12/09 00:35:08;;;;;;;9.38;7.85;;;;;;;1.69;100.00;97606.59;4239656;27;20205;-49
2022/12/09 00:37:10;;;;;;;9.52;8.55;;;;;;;1.70;100.00;97607.44;4237743;27;20683;-50
2022/12/09 00:39:12;;;;;;;9.45;8.57;;;;;;;1.68;100.00;97591.47;4226088;27;20708;-49
2022/12/09 00:41:15;;;;;;;14.93;8.55;;;;;;;1.65;100.00;97602.69;4224433;27;20224;-49
2022/12/09 00:43:17;;;;;;;10.02;8.38;;;;;;;1.63;100.00;97607.50;4221038;27;20206;-49
2022/12/09 00:45:19;;;;;;;9.75;8.82;;;;;;;1.60;100.00;97601.69;4224085;27;20198;-49
2022/12/09 00:47:21;;;;;;;9.02;8.23;;;;;;;1.59;100.00;97595.47;4228028;27;20225;-49
2022/12/09 00:49:23;;;;;;;9.68;8.68;;;;;;;1.56;100.00;97590.53;4223862;27;20304;-49
2022/12/09 00:51:25;;;;;;;8.57;7.85;;;;;;;1.60;100.00;97596.31;4219392;27;20222;-49
2022/12/09 00:53:27;;;;;;;10.70;9.63;;;;;;;1.56;100.00;97595.91;4225012;27;20206;-50
2022/12/09 00:55:29;;;;;;;12.38;8.88;;;;;;;1.62;100.00;97600.41;4221230;28;20194;-50
2022/12/09 00:57:31;;;;;;;8.90;8.00;;;;;;;1.54;100.00;97589.91;4239129;27;20734;-51
2022/12/09 00:59:33;;;;;;;14.38;8.45;;;;;;;1.51;100.00;97595.72;4224184;27;20674;-50
2022/12/09 01:01:35;;;;;;;14.25;9.55;;;;;;;1.49;100.00;97595.09;4205673;28;20756;-50
2022/12/09 01:03:38;;;;;;;9.90;8.35;;;;;;;1.49;100.00;97589.72;4203572;28;20297;-50
2022/12/09 01:05:40;;;;;;;8.73;7.85;;;;;;;1.59;100.00;97590.09;4225555;27;20248;-50
2022/12/09 01:07:42;;;;;;;9.85;8.18;;;;;;;1.70;100.00;97586.72;4224892;27;20206;-48
2022/12/09 01:09:44;;;;;;;9.45;7.95;;;;;;;1.41;100.00;97591.84;4224715;27;20259;-50
2022/12/09 01:11:46;;;;;;;11.30;7.95;;;;;;;1.23;100.00;97587.19;4226785;27;20692;-49
2022/12/09 01:13:48;;;;;;;10.75;8.43;;;;;;;1.20;100.00;97589.47;4240492;27;20269;-50
2022/12/09 01:15:50;;;;;;;8.93;7.65;;;;;;;1.20;100.00;97592.97;4218971;27;20566;-50
2022/12/09 01:17:52;;;;;;;9.95;9.05;;;;;;;1.20;100.00;97582.19;4236860;27;20209;-49
2022/12/09 01:19:54;;;;;;;9.45;8.07;;;;;;;1.39;100.00;97588.53;4236873;27;20229;-50
2022/12/09 01:21:56;;;;;;;11.38;9.02;;;;;;;1.27;100.00;97590.28;4238466;27;20229;-48
2022/12/09 01:23:58;;;;;;;12.23;8.13;;;;;;;0.99;100.00;97592.44;4209090;28;20241;-49
2022/12/09 01:26:02;;;;;;;9.50;8.52;;;;;;;0.99;100.00;97582.50;4225414;27;20261;-49
2022/12/09 01:28:04;;;;;;;9.80;8.90;;;;;;;1.07;100.00;97589.53;4234311;27;20213;-50
2022/12/09 01:30:08;;;;;;;10.25;9.35;;;;;;;1.05;100.00;97587.03;4222236;27;20576;-49
2022/12/09 01:32:10;;;;;;;11.23;8.50;;;;;;;1.17;100.00;97585.34;4218931;28;20682;-49
2022/12/09 01:34:12;;;;;;;9.73;7.82;;;;;;;1.26;100.00;97589.44;4217821;27;20213;-49
2022/12/09 01:36:20;;;;;;;9.98;8.95;;;;;;;1.28;100.00;97587.34;4223630;27;20685;-50
2022/12/09 01:38:22;;;;;;;8.45;7.75;;;;;;;1.27;100.00;97587.56;4215739;27;20258;-48
2022/12/09 01:40:24;;;;;;;8.13;7.43;;;;;;;1.27;100.00;97584.88;4221136;27;20206;-50
2022/12/09 01:42:26;;;;;;;12.63;9.35;;;;;;;1.25;100.00;97582.41;4222294;27;20244;-49
2022/12/09 01:44:33;;;;;;;8.23;7.43;;;;;;;1.40;100.00;97588.31;4214829;27;20210;-50
2022/12/09 01:46:35;;;;;;;10.18;8.43;;;;;;;1.39;100.00;97583.13;4229868;27;20967;-49
2022/12/09 01:48:39;;;;;;;9.60;7.80;;;;;;;1.27;100.00;97580.31;4218964;27;20210;-49
2022/12/09 01:50:51;;;;;;;8.82;7.65;;;;;;;1.18;100.00;97586.16;4237511;27;20217;-49
2022/12/09 01:52:53;;;;;;;8.85;7.90;;;;;;;1.19;100.00;97572.47;4219140;27;20641;-49
2022/12/09 01:54:54;;;;;;;11.15;8.32;;;;;;;1.06;100.00;97575.22;4204280;28;20206;-48
2022/12/09 01:56:56;;;;;;;8.35;7.45;;;;;;;1.04;100.00;97568.41;4236569;27;20221;-49
2022/12/09 01:59:07;;;;;;;9.20;8.18;;;;;;;1.02;100.00;97574.00;4221788;27;20206;-50
2022/12/09 02:01:08;;;;;;;8.73;7.47;;;;;;;0.98;100.00;97570.09;4218256;27;20206;-49
2022/12/09 02:03:11;;;;;;;9.82;8.93;;;;;;;1.26;100.00;97577.81;4214305;27;20209;-48
2022/12/09 02:05:14;;;;;;;9.48;8.50;;;;;;;0.99;100.00;97560.13;4217849;27;20216;-49
2022/12/09 02:07:17;;;;;;;9.63;8.75;;;;;;;0.95;100.00;97562.41;4220508;27;20232;-49
2022/12/09 02:09:19;;;;;;;7.95;7.25;;;;;;;0.98;100.00;97559.31;4239024;27;20223;-49
2022/12/09 02:11:31;;;;;;;9.95;9.05;;;;;;;0.89;100.00;97549.00;4239475;27;20206;-50
2022/12/09 02:14:27;;;;;;;10.02;8.13;;;;;;;0.95;100.00;97548.94;4219019;28;20324;-49
2022/12/09 02:16:55;;;;;;;11.32;7.50;;;;;;;0.97;100.00;97548.75;4213240;28;20268;-50
2022/12/09 02:19:00;;;;;;;9.35;8.07;;;;;;;0.99;100.00;97549.34;4197727;28;20823;-49
2022/12/09 02:21:10;;;;;;;9.13;7.55;;;;;;;0.95;100.00;97553.53;4220275;28;21095;-49
2022/12/09 02:23:29;;;;;;;9.82;8.35;;;;;;;0.85;100.00;97548.59;4216711;28;20268;-49
2022/12/09 02:25:44;;;;;;;9.13;7.88;;;;;;;0.82;100.00;97545.50;4219310;27;21591;-49
2022/12/09 02:27:50;;;;;;;13.82;8.05;;;;;;;0.77;100.00;97546.16;4237246;27;20196;-49
2022/12/09 02:30:01;;;;;;;9.13;8.23;;;;;;;0.73;100.00;97550.28;4238959;27;20206;-50
2022/12/09 02:32:31;;;;;;;9.35;8.45;;;;;;;0.75;100.00;97548.19;4207547;27;20197;-48
2022/12/09 02:34:39;;;;;;;7.30;6.60;;;;;;;0.74;100.00;97543.88;4236911;27;20669;-50
2022/12/09 02:36:57;;;;;;;11.02;9.13;;;;;;;0.68;100.00;97541.22;4237445;27;20252;-50
2022/12/09 02:38:59;;;;;;;11.10;7.97;;;;;;;0.72;100.00;97543.25;4222428;28;20723;-49
2022/12/09 02:41:08;;;;;;;8.95;7.90;;;;;;;0.64;100.00;97535.44;4218829;28;20645;-49
2022/12/09 02:43:11;;;;;;;13.88;9.98;;;;;;;0.71;100.00;97538.91;4238341;27;20605;-49
2022/12/09 02:45:14;;;;;;;10.63;9.45;;;;;;;0.58;100.00;97528.19;4237047;27;20205;-50
2022/12/09 02:47:19;;;;;;;12.88;10.02;;;;;;;0.59;100.00;97532.53;4238788;27;20217;-49
2022/12/09 02:49:24;;;;;;;15.88;10.95;;;;;;;0.56;100.00;97524.88;4220315;28;20202;-49
2022/12/09 02:51:31;;;;;;;12.63;9.57;;;;;;;0.61;100.00;97525.06;4221484;27;20233;-49
2022/12/09 02:53:34;;;;;;;10.13;8.93;;;;;;;0.49;100.00;97526.75;4223478;28;20203;-49
2022/12/09 02:55:38;;;;;;;11.20;10.20;;;;;;;0.46;100.00;97521.81;4221641;28;20253;-48
2022/12/09 02:57:40;;;;;;;11.90;8.97;;;;;;;0.43;100.00;97510.66;4203892;28;20333;-49
2022/12/09 02:59:42;;;;;;;9.88;8.90;;;;;;;0.40;100.00;97511.88;4220186;28;20210;-49
2022/12/09 03:02:13;;;;;;;9.00;8.18;;;;;;;0.49;100.00;97505.22;4236701;27;20699;-49
2022/12/09 03:04:20;;;;;;;9.85;8.45;;;;;;;0.50;100.00;97506.91;4237690;27;20584;-49
2022/12/09 03:06:26;;;;;;;10.27;8.25;;;;;;;0.44;100.00;97507.75;4238313;27;20228;-48
2022/12/09 03:08:43;;;;;;;9.15;8.32;;;;;;;0.42;100.00;97507.13;4217615;28;20203;-49
2022/12/09 03:11:13;;;;;;;12.43;9.05;;;;;;;0.47;100.00;97509.19;4238913;27;20243;-49
2022/12/09 03:13:25;;;;;;;10.30;9.30;;;;;;;0.43;100.00;97506.09;4235176;27;20225;-49
2022/12/09 03:15:30;;;;;;;8.32;7.53;;;;;;;0.45;100.00;97506.72;4236586;27;20206;-49
2022/12/09 03:17:35;;;;;;;8.68;7.75;;;;;;;0.50;100.00;97506.06;4224617;28;20245;-48
2022/12/09 03:20:16;;;;;;;9.65;8.70;;;;;;;0.52;100.00;97515.59;4237700;27;20209;-49
2022/12/09 03:22:25;;;;;;;14.65;9.52;;;;;;;0.49;100.00;97505.22;4237946;27;20228;-48
2022/12/09 03:24:39;;;;;;;11.07;9.77;;;;;;;0.50;100.00;97500.69;4220958;27;20579;-49
2022/12/09 03:26:42;;;;;;;10.95;9.82;;;;;;;0.44;100.00;97494.31;4202829;28;20222;-49
2022/12/09 03:28:48;;;;;;;13.18;9.07;;;;;;;0.46;100.00;97494.91;4225878;27;20213;-50
2022/12/09 03:30:52;;;;;;;12.20;8.80;;;;;;;0.43;100.00;97489.97;4240127;27;20284;-50
2022/12/09 03:32:55;;;;;;;15.10;9.35;;;;;;;0.40;100.00;97479.59;4202419;28;20204;-49
2022/12/09 03:35:03;;;;;;;10.93;9.88;;;;;;;0.43;100.00;97489.13;4204280;28;20203;-49
2022/12/09 03:37:06;;;;;;;9.30;8.25;;;;;;;0.39;100.00;97483.34;4225326;27;20221;-49
2022/12/09 03:39:13;;;;;;;8.85;7.95;;;;;;;0.35;100.00;97487.47;4224295;27;20239;-49
2022/12/09 03:41:24;;;;;;;10.13;9.15;;;;;;;0.46;100.00;97488.69;4239057;27;20284;-48
2022/12/09 03:43:33;;;;;;;9.35;8.23;;;;;;;0.40;100.00;97482.28;4240773;27;20319;-52
2022/12/09 03:45:35;;;;;;;9.77;8.82;;;;;;;0.38;100.00;97487.06;4222613;27;20693;-49
2022/12/09 03:47:37;;;;;;;8.57;7.65;;;;;;;0.44;100.00;97483.53;4237445;27;21695;-49
2022/12/09 03:49:39;;;;;;;9.37;8.10;;;;;;;0.17;100.00;97481.13;4228565;27;20298;-50
2022/12/09 03:51:49;;;;;;;8.88;8.05;;;;;;;0.29;100.00;97477.56;4224364;27;20206;-48
2022/12/09 03:54:14;;;;;;;8.05;7.35;;;;;;;0.20;100.00;97478.84;4223366;27;20197;-50
2022/12/09 03:56:21;;;;;;;8.33;7.50;;;;;;;0.15;100.00;97475.94;4221955;27;20697;-49
2022/12/09 03:58:24;;;;;;;8.30;7.50;;;;;;;0.17;100.00;97479.28;4221718;27;20308;-48
2022/12/09 04:00:26;;;;;;;7.75;6.90;;;;;;;0.20;100.00;97476.16;4221443;27;20202;-49
2022/12/09 04:02:28;;;;;;;8.30;7.38;;;;;;;0.06;100.00;97479.91;4237617;27;20230;-49
2022/12/09 04:04:30;;;;;;;8.57;7.77;;;;;;;-0.01;100.00;97479.09;4240066;27;20557;-49
2022/12/09 04:06:32;;;;;;;12.43;7.97;;;;;;;-0.22;100.00;97473.13;4206282;28;20311;-49
2022/12/09 04:08:34;;;;;;;10.50;9.60;;;;;;;-0.12;100.00;97471.66;4242060;27;20212;-49
2022/12/09 04:10:36;;;;;;;8.63;7.73;;;;;;;-0.40;100.00;97480.16;4222309;27;20206;-47
2022/12/09 04:12:38;;;;;;;9.83;8.93;;;;;;;-0.29;100.00;97487.63;4238231;27;20712;-48
2022/12/09 04:14:41;;;;;;;11.70;9.50;;;;;;;-0.24;100.00;97468.97;4206783;28;20198;-48
2022/12/09 04:16:43;;;;;;;8.57;6.93;;;;;;;-0.20;100.00;97470.22;4203637;28;20236;-49
2022/12/09 04:18:45;;;;;;;7.20;6.50;;;;;;;-0.13;100.00;97471.03;4220420;27;20302;-49
2022/12/09 04:20:48;;;;;;;9.23;8.40;;;;;;;-0.08;100.00;97470.22;4222565;27;20598;-48
2022/12/09 04:22:50;;;;;;;7.17;5.93;;;;;;;-0.06;100.00;97468.13;4209030;28;20774;-49
2022/12/09 04:24:52;;;;;;;8.70;7.90;;;;;;;-0.11;100.00;97462.56;4225510;27;20346;-49
2022/12/09 04:26:54;;;;;;;8.53;7.70;;;;;;;-0.08;100.00;97470.22;4217960;27;20272;-48
2022/12/09 04:28:55;;;;;;;8.68;7.88;;;;;;;-0.08;100.00;97471.25;4239694;27;20228;-49
2022/12/09 04:30:57;;;;;;;10.40;8.60;;;;;;;-0.09;100.00;97472.28;4222328;27;20214;-49
2022/12/09 04:33:00;;;;;;;7.53;6.83;;;;;;;-0.13;100.00;97461.94;4220210;27;20202;-50
2022/12/09 04:35:02;;;;;;;8.27;7.43;;;;;;;-0.15;100.00;97467.75;4227356;27;20575;-48
2022/12/09 04:37:04;;;;;;;9.18;8.45;;;;;;;-0.17;100.00;97475.19;4218028;27;20234;-48
2022/12/09 04:39:06;;;;;;;8.27;7.47;;;;;;;-0.13;100.00;97470.00;4224724;27;20280;-49
2022/12/09 04:41:09;;;;;;;8.13;6.80;;;;;;;-0.16;100.00;97466.09;4219151;27;20234;-49
2022/12/09 04:43:10;;;;;;;7.75;6.95;;;;;;;-0.22;100.00;97458.88;4225129;27;20616;-48
2022/12/09 04:45:12;;;;;;;9.17;8.13;;;;;;;-0.25;100.00;97464.66;4222845;27;20288;-49
2022/12/09 04:47:14;;;;;;;7.93;7.13;;;;;;;-0.29;100.00;97460.75;4240165;27;20424;-48
2022/12/09 04:49:16;;;;;;;8.07;7.07;;;;;;;-0.20;100.00;97457.59;4238608;27;20222;-49
2022/12/09 04:51:18;;;;;;;6.80;6.20;;;;;;;-0.45;100.00;97464.66;4224396;27;20257;-48
2022/12/09 04:53:21;;;;;;;7.43;6.57;;;;;;;-0.33;100.00;97468.41;4221142;27;20198;-49
2022/12/09 04:55:23;;;;;;;8.53;7.83;;;;;;;-0.35;100.00;97461.56;4220370;27;20229;-48
2022/12/09 04:57:24;;;;;;;9.37;7.43;;;;;;;-0.38;100.00;97456.59;4216777;27;20942;-48
2022/12/09 04:59:29;;;;;;;8.57;6.87;;;;;;;-0.33;100.00;97459.50;4236160;27;20208;-50
2022/12/09 05:01:31;;;;;;;7.97;7.20;;;;;;;-0.36;100.00;97460.72;4225823;27;21131;-49
2022/12/09 05:03:34;;;;;;;9.63;6.47;;;;;;;-0.44;100.00;97458.25;4236044;27;20233;-48
2022/12/09 05:05:39;;;;;;;7.70;6.90;;;;;;;-0.47;100.00;97453.28;4216959;27;20206;-49
2022/12/09 05:07:42;;;;;;;8.27;7.50;;;;;;;-0.49;100.00;97454.56;4226188;27;20229;-49
2022/12/09 05:09:44;;;;;;;7.37;6.77;;;;;;;-0.52;100.00;97449.56;4239576;27;20213;-49
2022/12/09 05:11:46;;;;;;;8.77;7.80;;;;;;;-0.51;100.00;97441.31;4234801;27;20230;-48
2022/12/09 05:13:49;;;;;;;9.40;8.50;;;;;;;-0.48;100.00;97440.88;4206863;28;20229;-48
2022/12/09 05:16:18;;;;;;;8.53;6.70;;;;;;;-0.50;100.00;97431.38;4222666;27;20293;-48
2022/12/09 05:18:20;;;;;;;7.17;6.53;;;;;;;-0.50;100.00;97428.69;4217044;27;20680;-48
2022/12/09 05:20:26;;;;;;;8.27;7.20;;;;;;;-0.48;100.00;97432.84;4218732;27;20206;-49
2022/12/09 05:22:28;;;;;;;7.00;6.00;;;;;;;-0.47;100.00;97425.63;4218298;27;20356;-49
2022/12/09 05:24:31;;;;;;;6.50;5.70;;;;;;;-0.49;100.00;97423.13;4221547;27;20237;-50
2022/12/09 05:26:33;;;;;;;8.23;7.53;;;;;;;-0.38;100.00;97424.34;4218893;27;20396;-49
2022/12/09 05:28:36;;;;;;;9.10;6.57;;;;;;;-0.46;100.00;97422.72;4220935;27;20206;-48
2022/12/09 05:30:38;;;;;;;8.67;7.97;;;;;;;-0.51;100.00;97427.06;4236472;27;21839;-48
2022/12/09 05:32:40;;;;;;;10.50;7.60;;;;;;;-0.41;100.00;97419.41;4219576;27;20914;-49
2022/12/09 05:34:43;;;;;;;8.47;7.67;;;;;;;-0.49;100.00;97422.31;4221303;27;20285;-48
2022/12/09 05:36:45;;;;;;;7.30;6.60;;;;;;;-0.66;100.00;97429.13;4218808;27;20271;-49
2022/12/09 05:38:47;;;;;;;7.33;6.63;;;;;;;-0.70;100.00;97431.41;4235447;27;20567;-49
2022/12/09 05:40:49;;;;;;;12.77;9.00;;;;;;;-0.69;100.00;97426.88;4223484;27;20209;-48
2022/12/09 05:42:51;;;;;;;8.20;7.47;;;;;;;-0.90;100.00;97421.66;4221806;27;20307;-49
2022/12/09 05:44:54;;;;;;;7.97;7.33;;;;;;;-0.87;100.00;97432.81;4233840;27;20206;-48
2022/12/09 05:46:57;;;;;;;8.20;7.50;;;;;;;-0.85;100.00;97416.53;4220570;27;20243;-48
2022/12/09 05:48:59;;;;;;;9.87;8.87;;;;;;;-0.84;100.00;97423.53;4225445;27;20214;-49
2022/12/09 05:51:06;;;;;;;9.30;8.43;;;;;;;-0.74;100.00;97429.34;4234250;27;20213;-48
2022/12/09 05:53:08;;;;;;;9.70;8.57;;;;;;;-0.78;100.00;97428.09;4236243;27;20288;-47
2022/12/09 05:55:10;;;;;;;9.10;7.97;;;;;;;-0.78;100.00;97423.56;4236884;27;20694;-50
2022/12/09 05:57:12;;;;;;;8.20;6.70;;;;;;;-0.78;100.00;97422.72;4219950;27;20240;-50
2022/12/09 05:59:15;;;;;;;9.73;8.07;;;;;;;-0.81;100.00;97423.16;4235278;27;20209;-48
2022/12/09 06:01:18;;;;;;;8.73;8.03;;;;;;;-0.80;100.00;97419.41;4230408;27;20258;-49
2022/12/09 06:03:20;;;;;;;8.53;7.73;;;;;;;-0.82;100.00;97410.75;4215728;27;20222;-48
2022/12/09 06:05:22;;;;;;;9.93;9.00;;;;;;;-0.85;100.00;97416.53;4234801;27;20305;-48
2022/12/09 06:07:24;;;;;;;8.43;7.37;;;;;;;-0.89;100.00;97415.28;4194952;28;20226;-48
2022/12/09 06:09:26;;;;;;;7.27;6.37;;;;;;;-0.87;100.00;97413.22;4216390;27;20210;-48
2022/12/09 06:11:30;;;;;;;8.23;7.37;;;;;;;-0.76;100.00;97420.66;4194899;28;20199;-48
2022/12/09 06:13:33;;;;;;;8.27;7.47;;;;;;;-0.73;100.00;97414.88;4218128;28;20201;-49
2022/12/09 06:15:35;;;;;;;10.23;9.03;;;;;;;-0.83;100.00;97419.81;4233660;27;20296;-48
2022/12/09 06:17:37;;;;;;;8.80;7.70;;;;;;;-0.82;100.00;97418.81;4218426;28;20237;-49
2022/12/09 06:19:40;;;;;;;8.33;7.63;;;;;;;-0.91;100.00;97422.72;4213184;27;20340;-49
2022/12/09 06:21:42;;;;;;;7.30;6.60;;;;;;;-0.92;100.00;97415.69;4212359;27;20636;-49
2022/12/09 06:23:44;;;;;;;7.30;6.43;;;;;;;-1.02;100.00;97424.16;4181730;28;20330;-48
2022/12/09 06:25:46;;;;;;;7.97;7.17;;;;;;;-1.18;100.00;97416.50;4196022;28;20241;-48
2022/12/09 06:27:48;;;;;;;7.83;7.13;;;;;;;-1.15;100.00;97409.91;4211649;28;20314;-48
2022/12/09 06:29:50;;;;;;;6.83;6.23;;;;;;;-1.13;100.00;97418.56;4208474;28;20205;-48
2022/12/09 06:31:55;;;;;;;9.13;8.30;;;;;;;-1.10;100.00;97407.41;4213074;28;20668;-49
2022/12/09 06:33:57;;;;;;;7.77;7.17;;;;;;;-1.13;100.00;97415.88;4211210;28;20214;-48
2022/12/09 06:36:01;;;;;;;9.03;8.33;;;;;;;-1.02;100.00;97404.56;4192450;28;20241;-48
2022/12/09 06:38:03;;;;;;;8.30;7.57;;;;;;;-1.06;100.00;97408.66;4197212;28;20228;-49
2022/12/09 06:40:06;;;;;;;7.37;6.67;;;;;;;-1.05;100.00;97405.78;4214390;28;20201;-48
2022/12/09 06:42:08;;;;;;;9.90;9.00;;;;;;;-1.11;100.00;97403.06;4197325;28;20277;-49
2022/12/09 06:44:11;;;;;;;9.43;8.53;;;;;;;-1.15;100.00;97396.47;4195102;28;20684;-48
2022/12/09 06:46:22;;;;;;;9.47;8.57;;;;;;;-1.11;100.00;97400.38;4195033;28;20315;-48
2022/12/09 06:48:25;;;;;;;9.73;8.73;;;;;;;-1.12;100.00;97404.09;4191293;28;20252;-49
2022/12/09 06:50:27;;;;;;;8.43;7.17;;;;;;;-1.12;100.00;97406.78;4180339;28;20648;-49
2022/12/09 06:52:30;;;;;;;9.27;8.37;;;;;;;-1.14;100.00;97400.81;4191905;28;20210;-48
2022/12/09 06:54:32;;;;;;;8.67;7.83;;;;;;;-1.17;100.00;97396.69;4194786;28;20294;-49
2022/12/09 06:56:34;;;;;;;9.03;8.13;;;;;;;-1.17;100.00;97391.31;4212955;28;20234;-49
2022/12/09 06:58:37;;;;;;;10.47;8.50;;;;;;;-1.10;100.00;97397.50;4194738;28;20237;-49
2022/12/09 07:00:39;;;;;;;6.20;5.70;;;;;;;-1.08;100.00;97400.00;4199591;28;20235;-49
2022/12/09 07:02:41;;;;;;;7.73;7.03;;;;;;;-1.10;100.00;97407.41;4193216;28;20220;-48
2022/12/09 07:04:43;;;;;;;7.90;6.97;;;;;;;-1.11;100.00;97405.75;4197786;28;20397;-48
2022/12/09 07:06:46;;;;;;;8.53;7.73;;;;;;;-1.04;100.00;97409.28;4217369;27;20222;-48
2022/12/09 07:08:48;;;;;;;7.30;6.67;;;;;;;-1.11;100.00;97406.59;4198843;28;20203;-48
2022/12/09 07:10:50;;;;;;;7.83;6.90;;;;;;;-0.89;100.00;97409.94;4198499;28;20281;-49
2022/12/09 07:12:58;;;;;;;9.23;7.80;;;;;;;-1.18;100.00;97400.41;4200379;28;20600;-49
2022/12/09 07:15:01;;;;;;;10.17;9.27;;;;;;;-1.18;100.00;97399.56;4215987;27;20210;-49
2022/12/09 07:17:03;;;;;;;9.63;8.57;;;;;;;-1.06;100.00;97397.94;4198589;28;22135;-48
2022/12/09 07:19:06;;;;;;;9.97;9.00;;;;;;;-0.98;100.00;97398.56;4200265;28;20780;-48
2022/12/09 07:21:10;;;;;;;7.23;6.73;;;;;;;-1.02;100.00;97399.19;4215420;28;20293;-49
2022/12/09 07:23:12;;;;;;;8.57;7.57;;;;;;;-0.99;100.00;97409.50;4185959;28;20605;-49
2022/12/09 07:25:14;;;;;;;9.87;8.87;;;;;;;-1.02;100.00;97399.19;4185893;28;20265;-49
2022/12/09 07:27:17;;;;;;;10.03;8.27;;;;;;;-1.10;100.00;97400.19;4199444;28;20307;-49
2022/12/09 07:29:20;;;;;;;13.47;8.70;;;;;;;-1.04;100.00;97406.59;4196606;28;20261;-49
2022/12/09 07:31:24;;;;;;;8.03;7.27;;;;;;;-1.01;100.00;97406.19;4199434;28;20256;-49
2022/12/09 07:33:28;;;;;;;8.87;8.00;;;;;;;-0.95;100.00;97394.66;4204151;28;20233;-49
2022/12/09 07:35:30;;;;;;;10.23;9.37;;;;;;;-1.09;100.00;97403.72;4188918;28;20219;-49
2022/12/09 07:37:32;;;;;;;8.50;7.70;;;;;;;-1.05;100.00;97411.16;4214333;27;20623;-50
2022/12/09 07:39:37;;;;;;;8.37;7.57;;;;;;;-1.09;100.00;97401.84;4216331;27;21054;-49
2022/12/09 07:41:44;;;;;;;10.90;10.03;;;;;;;-1.09;100.00;97403.72;4201604;28;20211;-49
2022/12/09 07:43:47;;;;;;;10.80;9.23;;;;;;;-1.12;100.00;97402.25;4179489;28;20219;-49
2022/12/09 07:45:49;;;;;;;8.77;7.93;;;;;;;-1.14;100.00;97400.81;4196877;28;20203;-49
2022/12/09 07:47:51;;;;;;;9.03;8.27;;;;;;;-1.13;100.00;97403.31;4197609;28;20649;-50
2022/12/09 07:49:54;;;;;;;10.07;8.87;;;;;;;-1.07;100.00;97401.66;4182495;28;20733;-48
2022/12/09 07:52:03;;;;;;;9.63;8.73;;;;;;;-1.12;100.00;97404.09;4204438;28;20222;-49
2022/12/09 07:54:05;;;;;;;10.13;9.23;;;;;;;-1.09;100.00;97401.84;4195196;28;20236;-48
2022/12/09 07:56:10;;;;;;;9.50;8.60;;;;;;;-1.09;100.00;97403.72;4195489;28;20235;-49
2022/12/09 07:58:13;;;;;;;11.90;8.27;;;;;;;-1.08;100.00;97400.00;4197421;28;20210;-49
2022/12/09 08:00:15;;;;;;;9.57;8.77;;;;;;;-1.07;100.00;97407.81;4195449;28;20206;-49
2022/12/09 08:02:17;;;;;;;9.27;8.47;;;;;;;-1.06;100.00;97406.81;4193636;28;20238;-49
2022/12/09 08:04:20;;;;;;;10.10;9.20;;;;;;;-1.00;100.00;97407.84;4209798;28;20237;-48
2022/12/09 08:06:24;;;;;;;8.63;7.83;;;;;;;-0.99;100.00;97407.66;4208704;28;20403;-49
2022/12/09 08:08:26;;;;;;;9.23;8.43;;;;;;;-1.06;100.00;97398.78;4192754;28;20210;-49
2022/12/09 08:10:29;;;;;;;8.73;7.83;;;;;;;-1.03;100.00;97410.91;4203563;28;20287;-49
2022/12/09 08:12:31;;;;;;;11.50;7.60;;;;;;;-1.07;100.00;97404.31;4184920;28;20215;-49
2022/12/09 08:14:33;;;;;;;9.80;9.03;;;;;;;-1.03;100.00;97402.88;4194110;28;20317;-49
2022/12/09 08:16:36;;;;;;;10.90;9.97;;;;;;;-0.90;100.00;97401.03;4196792;28;20823;-51
2022/12/09 08:18:38;;;;;;;9.93;8.97;;;;;;;-0.94;100.00;97401.66;4197482;28;21674;-49
2022/12/09 08:20:41;;;;;;;10.03;9.20;;;;;;;-0.89;100.00;97397.31;4199624;28;20210;-49
2022/12/09 08:22:43;;;;;;;10.07;9.17;;;;;;;-0.79;100.00;97388.84;4197356;28;20222;-49
2022/12/09 08:24:45;;;;;;;14.63;12.37;;;;;;;-0.76;100.00;97402.69;4188945;28;22470;-49
2022/12/09 08:26:49;;;;;;;14.47;13.07;;;;;;;-0.74;100.00;97394.44;4192524;28;20226;-48
2022/12/09 08:28:52;;;;;;;14.77;13.37;;;;;;;-0.67;100.00;97387.19;4194317;28;20290;-50
2022/12/09 08:30:54;;;;;;;16.93;13.27;;;;;;;-0.66;100.00;97389.69;4199172;28;20203;-50
2022/12/09 08:32:56;;;;;;;14.00;12.70;;;;;;;-0.65;100.00;97387.81;4217392;27;20206;-50
2022/12/09 08:34:59;;;;;;;15.93;13.33;;;;;;;-0.64;100.00;97398.34;4200182;28;20213;-48
2022/12/09 08:37:01;;;;;;;13.67;11.10;;;;;;;-0.65;100.00;97385.13;4192792;28;20223;-49
2022/12/09 08:39:04;;;;;;;12.57;11.47;;;;;;;-0.62;100.00;97387.41;4213907;27;20222;-48
2022/12/09 08:41:09;;;;;;;14.17;13.07;;;;;;;-0.57;100.00;97388.44;4199910;28;20210;-50
2022/12/09 08:43:11;;;;;;;10.00;9.20;;;;;;;-0.64;100.00;97378.72;4197829;28;20229;-48
2022/12/09 08:45:13;;;;;;;10.93;9.80;;;;;;;-0.92;100.00;97381.63;4198536;28;20800;-48
2022/12/09 08:47:15;;;;;;;13.70;12.40;;;;;;;-0.81;100.00;97390.94;4184946;28;20306;-47
2022/12/09 08:49:20;;;;;;;10.67;9.67;;;;;;;-0.82;100.00;97378.53;4194544;28;20207;-49
2022/12/09 08:51:23;;;;;;;12.40;11.13;;;;;;;-0.71;100.00;97389.47;4198295;28;20261;-48
2022/12/09 08:53:25;;;;;;;12.33;11.13;;;;;;;-0.74;100.00;97386.38;4198072;28;20967;-48
2022/12/09 08:55:27;;;;;;;10.63;9.63;;;;;;;-0.71;100.00;97380.59;4197265;28;20293;-49
2022/12/09 08:57:29;;;;;;;12.07;10.87;;;;;;;-0.68;100.00;97382.88;4201685;28;20310;-48
2022/12/09 08:59:31;;;;;;;11.97;10.77;;;;;;;-0.66;100.00;97380.78;4192440;28;20246;-48
2022/12/09 09:01:34;;;;;;;11.37;10.37;;;;;;;-0.63;100.00;97375.00;4194414;28;20202;-48
2022/12/09 09:03:36;;;;;;;11.17;10.13;;;;;;;-0.43;100.00;97379.31;4185858;28;20275;-48
2022/12/09 09:05:39;;;;;;;13.53;9.97;;;;;;;-0.46;100.00;97384.28;4203161;28;20289;-47
2022/12/09 09:07:41;;;;;;;11.43;10.50;;;;;;;-0.48;100.00;97381.00;4216242;28;20206;-48
2022/12/09 09:09:44;;;;;;;10.23;8.20;;;;;;;-0.60;100.00;97388.84;4187966;28;20218;-51
2022/12/09 09:11:47;;;;;;;11.07;9.77;;;;;;;-0.48;100.00;97384.47;4195468;28;20206;-48
2022/12/09 09:13:52;;;;;;;11.00;9.77;;;;;;;-0.46;100.00;97378.91;4197888;28;20198;-48
2022/12/09 09:15:55;;;;;;;9.80;8.90;;;;;;;-0.47;100.00;97375.38;4213913;28;20639;-48
2022/12/09 09:17:56;;;;;;;11.83;10.50;;;;;;;-0.44;100.00;97376.84;4182963;28;20211;-48
2022/12/09 09:19:58;;;;;;;9.63;8.73;;;;;;;-0.41;100.00;97377.22;4188248;28;20218;-48
2022/12/09 09:22:00;;;;;;;17.23;9.23;;;;;;;-0.46;100.00;97371.69;4193760;28;21291;-50
2022/12/09 09:24:08;;;;;;;11.63;10.47;;;;;;;-0.52;100.00;97369.00;4211490;28;20226;-49
2022/12/09 09:26:21;;;;;;;10.80;9.40;;;;;;;-0.30;100.00;97370.41;4203488;28;20264;-50
2022/12/09 09:28:23;;;;;;;10.50;9.40;;;;;;;-0.30;100.00;97368.53;4204773;28;20573;-49
2022/12/09 09:30:31;;;;;;;8.57;7.77;;;;;;;-0.25;100.00;97367.91;4189724;28;20326;-49
2022/12/09 09:32:35;;;;;;;10.90;9.63;;;;;;;-0.08;100.00;97370.75;4189139;28;20203;-49
2022/12/09 09:34:37;;;;;;;10.23;9.43;;;;;;;-0.06;100.00;97363.31;4202573;28;20295;-49
2022/12/09 09:36:39;;;;;;;9.87;8.83;;;;;;;0.02;100.00;97365.75;4217462;27;20224;-49